Airfield :







YOU CAN JOIN US ON...

 
LOGIN :

Register | Disclaimer

   EN    FR    IT 

 









Legend :    VFR   Marginal VFR   IFR   Intensive IFR   Very Intensive IFR
Visi :
Ceiling :
>= 8 km
>= 3000ft
5 to 8 km
1000 to 3000 ft
1500m to 5 km
500 to 1000 ft
800 to 1500m
200 to 500 ft
< 800m
< 200 ft
Symbols :   Thunderstorms  Fog  Heavy snow  Heavy precipitations  Wind > 20 kt






- Airport Elevation : 241 ft
- IATA code : CEF


KCEF - Westover ARB/Metropolitan

CURRENT METAR :
  • 280255Z 28008KT 10SM -RA OVC005 07/07 A2927 RMK AO2A SLP919 P0002 60013 T00730072 57050

EXPIRED METARs :
  • 280157Z COR 34004KT 7SM -RA OVC003 07/07 A2930 RMK AO2A SLP929 P0005 T00730072 COR 0205
  • 272155Z 10003KT 6SM -RA BR OVC005 08/07 A2953 RMK AO2A PRESFR SLP008 P0012 T00750074
  • 280117Z VRB03KT 3SM -RA BR OVC004 08/08 A2933 RMK AO2A SLP939
  • 280055Z 01003KT 1SM R23/P6000FT -RA BR OVC005 08/08 A2934 RMK AO2A PRESFR SLP943 P0003 T00770076

TAF TAF KCEF
Valid from the 28 at 03:00 until the 29 at 09:00 UTC


280300Z 2803/2909 VRB06KT 8000 -RA OVC005 520103 QNH2927INS
BECMG 2804/2805 25012KT 9999 NSW SCT010 OVC020 520103 QNH2929INS
BECMG 2811/2812 30010G15KT 9999 BKN025 620252 510103 QNH2945INS
TEMPO 2813/2820 32015G25KT 520004
BECMG 2820/2821 34012KT 9999 SCT030 QNH2979INS
BECMG 2823/2824 34009KT 9999 FEW035 FEW250 QNH2993INS WND VRB06KT AFT 2903 TX09/2819Z TN01/2903Z LAST NO AMDS AFT 2804 NEXT 2812
KZBW FIR / North America



MET'MAP, your aeronautical weather chart ! - Copyright ORBIFLY December 2007 - Disclaimer

ORBIFLY MET'MAP TEAM :

Programming & Development : Alexandra Zaïnal
Original concept : Baudouin d'Aumeries
Technical & hardware support : Manuel Goepfert
Assistance : Marc-Olivier Méhu




SOURCES & CREDITS :

   NOAA